createdAt,value
2018-12-21T00:00:55.167Z,100000.09
2018-12-21T00:05:59.472Z,99991.91
2018-12-21T00:11:03.872Z,99991.64
2018-12-21T00:16:08.870Z,99992.19
2018-12-21T00:21:21.515Z,99996.16
2018-12-21T00:26:19.372Z,99990.34
2018-12-21T00:31:28.722Z,99983.73
2018-12-21T00:36:38.584Z,99988.23
2018-12-21T00:41:41.995Z,99984.00
2018-12-21T00:46:51.406Z,99987.69
2018-12-21T00:52:00.585Z,99991.13
2018-12-21T00:57:04.790Z,99984.54
2018-12-21T01:02:09.354Z,99987.69
2018-12-21T01:07:13.966Z,99994.28
2018-12-21T01:12:18.862Z,99992.19
2018-12-21T01:17:23.484Z,99989.80
2018-12-21T01:22:28.295Z,99988.47
2018-12-21T01:27:33.064Z,99994.52
2018-12-21T01:32:37.478Z,99982.89
2018-12-21T01:37:42.077Z,99987.38
2018-12-21T01:42:46.514Z,99987.09
2018-12-21T01:47:51.676Z,99988.67
2018-12-21T01:52:55.885Z,99981.55
2018-12-21T01:58:00.106Z,99985.24
2018-12-21T02:03:04.530Z,99980.77
2018-12-21T02:08:08.906Z,99970.72
2018-12-21T02:13:14.122Z,99972.29
2018-12-21T02:18:19.293Z,99970.71
2018-12-21T02:23:24.121Z,99967.81
2018-12-21T02:28:28.555Z,99963.08
2018-12-21T02:33:32.845Z,99965.71
2018-12-21T02:38:37.186Z,99963.08
2018-12-21T02:43:41.468Z,99956.76
2018-12-21T02:48:46.879Z,99953.84
2018-12-21T02:53:56.377Z,99944.88
2018-12-21T02:59:00.843Z,99939.33
2018-12-21T03:04:14.875Z,99935.11
2018-12-21T03:09:19.168Z,99924.83
2018-12-21T03:14:28.541Z,99911.64
2018-12-21T03:19:32.721Z,99911.64
2018-12-21T03:24:37.068Z,99909.27
2018-12-21T03:29:41.666Z,99898.71
2018-12-21T03:34:45.820Z,99891.58
2018-12-21T03:39:50.051Z,99883.16
2018-12-21T03:44:54.425Z,99859.65
2018-12-21T03:49:58.615Z,99866.02
2018-12-21T03:55:02.895Z,99872.34
2018-12-21T04:00:08.487Z,99857.82
2018-12-21T04:05:12.940Z,99871.02
2018-12-21T04:10:17.215Z,99862.83
2018-12-21T04:15:21.547Z,99860.73
2018-12-21T04:20:25.727Z,99854.14
2018-12-21T04:25:39.433Z,99853.88
2018-12-21T04:30:43.926Z,99852.02
2018-12-21T04:35:49.481Z,99852.28
2018-12-21T04:40:53.728Z,99848.05
2018-12-21T04:45:58.067Z,99844.09
2018-12-21T04:51:03.292Z,99834.86
2018-12-21T04:56:07.491Z,99831.16
2018-12-21T05:01:11.772Z,99827.72
2018-12-21T05:06:16.078Z,99819.55
2018-12-21T05:11:20.779Z,99818.73
2018-12-21T05:16:24.993Z,99806.86
2018-12-21T05:21:29.186Z,99815.81
2018-12-21T05:26:33.395Z,99808.16
2018-12-21T05:31:37.672Z,99805.80
2018-12-21T05:36:41.784Z,99791.27
2018-12-21T05:41:47.798Z,99782.56
2018-12-21T05:46:52.282Z,99782.56
2018-12-21T05:51:56.561Z,99773.33
2018-12-21T05:57:00.801Z,99764.59
2018-12-21T06:02:05.517Z,99758.28
2018-12-21T06:07:10.020Z,99749.30
2018-12-21T06:12:16.058Z,99755.65
2018-12-21T06:17:20.641Z,99739.53
2018-12-21T06:22:24.871Z,99731.33
2018-12-21T06:27:30.069Z,99722.36
2018-12-21T06:32:34.511Z,99717.34
2018-12-21T06:37:38.889Z,99706.77
2018-12-21T06:42:43.177Z,99701.23
2018-12-21T06:47:47.555Z,99699.13
2018-12-21T06:52:52.240Z,99694.63
2018-12-21T06:57:56.662Z,99693.33
2018-12-21T07:03:01.397Z,99692.80
2018-12-21T07:08:05.873Z,99693.31
2018-12-21T07:13:10.478Z,99688.55
2018-12-21T07:18:15.195Z,99679.58
2018-12-21T07:23:29.103Z,99666.09
2018-12-21T07:28:33.593Z,99656.27
2018-12-21T07:33:38.131Z,99650.99
2018-12-21T07:38:42.563Z,99627.47
2018-12-21T07:43:47.117Z,99620.82
2018-12-21T07:48:51.522Z,99616.86
2018-12-21T07:53:55.837Z,99608.11
2018-12-21T07:59:00.306Z,99600.43
2018-12-21T08:04:04.630Z,99602.58
2018-12-21T08:09:09.054Z,99595.15
2018-12-21T08:14:13.246Z,99581.11
2018-12-21T08:19:17.804Z,99565.76
2018-12-21T08:24:22.186Z,99573.64
2018-12-21T08:29:26.856Z,99567.02
2018-12-21T08:34:31.354Z,99559.31
2018-12-21T08:39:35.708Z,99547.67
2018-12-21T08:44:40.210Z,99543.14
2018-12-21T08:49:44.768Z,99530.80
2018-12-21T08:54:49.248Z,99529.47
2018-12-21T08:59:54.467Z,99531.27
2018-12-21T09:04:59.370Z,99532.94
2018-12-21T09:10:03.662Z,99515.73
2018-12-21T09:15:12.135Z,99505.73
2018-12-21T09:20:16.794Z,99503.13
2018-12-21T09:25:21.307Z,99501.81
2018-12-21T09:30:25.674Z,99495.98
2018-12-21T09:35:30.273Z,99479.64
2018-12-21T09:40:35.165Z,99464.25
2018-12-21T09:45:40.797Z,99451.52
2018-12-21T09:50:45.295Z,99444.34
2018-12-21T09:55:49.808Z,99427.91
2018-12-21T10:00:59.057Z,99422.05
2018-12-21T10:06:03.437Z,99403.50
2018-12-21T10:11:07.849Z,99381.27
2018-12-21T10:16:12.565Z,99365.11
2018-12-21T10:21:21.974Z,99348.77
2018-12-21T10:26:26.481Z,99329.75
2018-12-21T10:31:30.961Z,99318.30
2018-12-21T10:36:35.479Z,99302.16
2018-12-21T10:41:39.936Z,99276.56
2018-12-21T10:46:44.244Z,99249.84
2018-12-21T10:51:48.652Z,99235.88
2018-12-21T10:56:53.028Z,99229.23
2018-12-21T11:01:57.428Z,99210.18
2018-12-21T11:07:01.778Z,99191.45
2018-12-21T11:12:07.267Z,99175.12
2018-12-21T11:17:12.103Z,99161.94
2018-12-21T11:22:18.036Z,99139.26
2018-12-21T11:27:22.993Z,99127.44
2018-12-21T11:32:27.667Z,99103.41
2018-12-21T11:37:32.759Z,99092.70
2018-12-21T11:42:43.092Z,99078.20
2018-12-21T11:47:47.685Z,99057.58
2018-12-21T11:52:52.534Z,99042.49
2018-12-21T11:57:56.845Z,99032.30
2018-12-21T12:03:01.210Z,99020.16
2018-12-21T12:08:05.857Z,99001.19
2018-12-21T12:13:10.171Z,98993.73
2018-12-21T12:18:14.524Z,98977.41
2018-12-21T12:23:19.006Z,98964.45
2018-12-21T12:28:23.515Z,98937.23
2018-12-21T12:33:28.277Z,98931.61
2018-12-21T12:38:32.788Z,98907.02
2018-12-21T12:43:37.321Z,98893.47
2018-12-21T12:48:43.127Z,98872.03
2018-12-21T12:53:47.436Z,98869.29
2018-12-21T12:58:52.062Z,98874.23
2018-12-21T13:03:56.738Z,98854.76
2018-12-21T13:09:01.156Z,98841.34
2018-12-21T13:14:14.098Z,98818.84
2018-12-21T13:19:19.488Z,98810.64
2018-12-21T13:24:23.870Z,98795.75
2018-12-21T13:29:28.766Z,98783.76
2018-12-21T13:34:33.309Z,98769.89
2018-12-21T13:39:38.116Z,98759.81
2018-12-21T13:44:48.123Z,98757.36
2018-12-21T13:49:52.878Z,98735.39
2018-12-21T13:54:58.707Z,98719.03
2018-12-21T14:00:03.087Z,98712.62
2018-12-21T14:05:12.435Z,98713.77
2018-12-21T14:10:16.987Z,98704.65
2018-12-21T14:15:21.459Z,98706.91
2018-12-21T14:20:26.203Z,98701.64
2018-12-21T14:25:30.886Z,98701.64
2018-12-21T14:30:35.399Z,98691.86
2018-12-21T14:35:40.709Z,98692.08
2018-12-21T14:40:45.342Z,98678.16
2018-12-21T14:45:49.687Z,98673.75
2018-12-21T14:50:54.318Z,98661.72
2018-12-21T14:55:59.061Z,98659.91
2018-12-21T15:01:04.457Z,98659.78
2018-12-21T15:06:09.009Z,98647.37
2018-12-21T15:11:13.232Z,98638.78
2018-12-21T15:16:17.744Z,98631.51
2018-12-21T15:21:22.097Z,98640.26
2018-12-21T15:26:26.605Z,98637.47
2018-12-21T15:31:37.173Z,98634.20
2018-12-21T15:36:41.676Z,98630.26
2018-12-21T15:41:46.801Z,98622.41
2018-12-21T15:46:51.175Z,98614.33
2018-12-21T15:51:55.952Z,98611.28
2018-12-21T15:57:00.443Z,98607.31
2018-12-21T16:02:05.091Z,98605.60
2018-12-21T16:07:10.077Z,98614.17
2018-12-21T16:12:15.239Z,98613.95
2018-12-21T16:17:21.625Z,98592.77
2018-12-21T16:22:28.097Z,98611.25
2018-12-21T16:27:33.541Z,98624.19
2018-12-21T16:32:46.915Z,98630.59
2018-12-21T16:37:52.207Z,98633.39
2018-12-21T16:42:56.565Z,98630.11
2018-12-21T16:48:01.609Z,98623.67
2018-12-21T16:53:05.950Z,98634.04
2018-12-21T16:58:10.627Z,98622.80
2018-12-21T17:03:16.047Z,98621.19
2018-12-21T17:08:20.275Z,98626.17
2018-12-21T17:13:24.635Z,98629.27
2018-12-21T17:18:29.568Z,98636.05
2018-12-21T17:23:35.144Z,98638.02
2018-12-21T17:28:39.789Z,98632.16
2018-12-21T17:33:44.753Z,98643.84
2018-12-21T17:38:49.512Z,98655.25
2018-12-21T17:43:54.005Z,98639.71
2018-12-21T17:48:58.511Z,98647.03
2018-12-21T17:54:04.812Z,98648.67
2018-12-21T17:59:09.411Z,98656.07
2018-12-21T18:04:24.349Z,98657.56
2018-12-21T18:09:33.667Z,98662.41
2018-12-21T18:14:38.625Z,98661.28
2018-12-21T18:19:43.792Z,98650.11
2018-12-21T18:24:53.965Z,98650.59
2018-12-21T18:29:58.627Z,98669.02
2018-12-21T18:35:05.222Z,98671.58
2018-12-21T18:40:10.547Z,98673.06
2018-12-21T18:45:15.137Z,98676.36
2018-12-21T18:50:19.591Z,98686.80
2018-12-21T18:55:24.136Z,98692.20
2018-12-21T19:00:29.363Z,98688.91
2018-12-21T19:05:34.021Z,98686.27
2018-12-21T19:10:39.896Z,98686.91
2018-12-21T19:15:44.558Z,98689.16
2018-12-21T19:20:48.936Z,98694.14
2018-12-21T19:25:54.361Z,98687.25
2018-12-21T19:30:59.162Z,98677.11
2018-12-21T19:36:05.038Z,98689.58
2018-12-21T19:41:11.833Z,98690.70
2018-12-21T19:46:16.397Z,98694.48
2018-12-21T19:51:21.288Z,98709.05
2018-12-21T19:56:43.517Z,98698.21
2018-12-21T20:01:53.629Z,98728.98
2018-12-21T20:06:58.333Z,98693.39
2018-12-21T20:12:03.197Z,98692.66
2018-12-21T20:17:10.737Z,98684.27
2018-12-21T20:22:15.416Z,98676.05
2018-12-21T20:27:20.175Z,98702.02
2018-12-21T20:32:25.007Z,98711.90
2018-12-21T20:37:29.424Z,98745.98
2018-12-21T20:42:35.250Z,98750.09
2018-12-21T20:47:40.069Z,98759.72
2018-12-21T20:52:46.164Z,98745.52
2018-12-21T20:57:53.189Z,98771.18
2018-12-21T21:03:02.899Z,98779.95
2018-12-21T21:08:07.465Z,98784.27
2018-12-21T21:13:19.270Z,98797.84
2018-12-21T21:18:19.523Z,98802.60
2018-12-21T21:23:24.512Z,98815.45
2018-12-21T21:28:29.344Z,98818.97
2018-12-21T21:33:35.279Z,98809.33
2018-12-21T21:38:40.216Z,98820.78
2018-12-21T21:43:44.899Z,98823.53
2018-12-21T21:48:49.530Z,98814.14
2018-12-21T21:53:56.112Z,98819.53
2018-12-21T21:59:00.953Z,98837.48
2018-12-21T22:04:05.841Z,98850.95
2018-12-21T22:09:10.658Z,98853.66
2018-12-21T22:14:14.875Z,98850.31
2018-12-21T22:19:19.357Z,98861.21
2018-12-21T22:24:23.969Z,98855.58
2018-12-21T22:29:28.552Z,98861.78
2018-12-21T22:34:35.138Z,98858.28
2018-12-21T22:39:40.926Z,98858.36
2018-12-21T22:44:45.241Z,98869.35
2018-12-21T22:49:50.003Z,98880.05
2018-12-21T22:54:54.589Z,98886.82
2018-12-21T23:00:00.314Z,98886.61
2018-12-21T23:05:05.038Z,98874.26
2018-12-21T23:10:09.423Z,98876.91
2018-12-21T23:15:13.671Z,98878.48
2018-12-21T23:20:19.421Z,98893.94
2018-12-21T23:25:24.889Z,98892.12
2018-12-21T23:30:29.377Z,98889.39
2018-12-21T23:35:33.850Z,98892.97
2018-12-21T23:40:38.448Z,98890.39
2018-12-21T23:45:43.036Z,98884.23
2018-12-21T23:50:47.432Z,98898.80
2018-12-21T23:55:51.683Z,98899.73
